sensor_id;sensor_type;location;lat;lon;timestamp;P1;durP1;ratioP1;P2;durP2;ratioP2
71125;SDS011;58785;55.566;38.058;2023-12-20T00:01:50;5.78;;;1.05;;
71125;SDS011;58785;55.566;38.058;2023-12-20T00:04:16;3.13;;;0.70;;
71125;SDS011;58785;55.566;38.058;2023-12-20T00:06:42;3.38;;;0.65;;
71125;SDS011;58785;55.566;38.058;2023-12-20T00:09:08;4.17;;;1.10;;
71125;SDS011;58785;55.566;38.058;2023-12-20T00:11:33;3.50;;;0.70;;
71125;SDS011;58785;55.566;38.058;2023-12-20T00:13:59;4.70;;;0.67;;
71125;SDS011;58785;55.566;38.058;2023-12-20T00:16:24;3.65;;;0.70;;
71125;SDS011;58785;55.566;38.058;2023-12-20T00:18:50;3.60;;;0.80;;
71125;SDS011;58785;55.566;38.058;2023-12-20T00:21:15;6.90;;;1.00;;
71125;SDS011;58785;55.566;38.058;2023-12-20T00:23:41;4.23;;;0.80;;
71125;SDS011;58785;55.566;38.058;2023-12-20T00:26:07;4.07;;;0.87;;
71125;SDS011;58785;55.566;38.058;2023-12-20T00:28:32;3.83;;;0.80;;
71125;SDS011;58785;55.566;38.058;2023-12-20T00:30:58;3.70;;;0.90;;
71125;SDS011;58785;55.566;38.058;2023-12-20T00:33:23;3.95;;;0.73;;
71125;SDS011;58785;55.566;38.058;2023-12-20T00:35:49;4.07;;;0.70;;
71125;SDS011;58785;55.566;38.058;2023-12-20T00:38:15;6.22;;;0.73;;
71125;SDS011;58785;55.566;38.058;2023-12-20T00:40:41;3.55;;;0.90;;
71125;SDS011;58785;55.566;38.058;2023-12-20T00:43:07;4.03;;;0.90;;
71125;SDS011;58785;55.566;38.058;2023-12-20T00:45:33;3.63;;;0.63;;
71125;SDS011;58785;55.566;38.058;2023-12-20T00:47:58;5.13;;;0.97;;
71125;SDS011;58785;55.566;38.058;2023-12-20T00:50:25;3.22;;;0.60;;
71125;SDS011;58785;55.566;38.058;2023-12-20T00:52:51;4.20;;;0.73;;
71125;SDS011;58785;55.566;38.058;2023-12-20T00:55:17;4.33;;;1.10;;
71125;SDS011;58785;55.566;38.058;2023-12-20T00:57:44;3.80;;;0.70;;
71125;SDS011;58785;55.566;38.058;2023-12-20T01:00:10;4.28;;;0.77;;
71125;SDS011;58785;55.566;38.058;2023-12-20T01:02:35;4.27;;;0.80;;
71125;SDS011;58785;55.566;38.058;2023-12-20T01:05:01;3.08;;;0.55;;
71125;SDS011;58785;55.566;38.058;2023-12-20T01:07:30;3.85;;;0.80;;
71125;SDS011;58785;55.566;38.058;2023-12-20T01:09:55;3.58;;;0.82;;
71125;SDS011;58785;55.566;38.058;2023-12-20T01:12:21;5.83;;;0.97;;
71125;SDS011;58785;55.566;38.058;2023-12-20T01:14:47;3.72;;;0.90;;
71125;SDS011;58785;55.566;38.058;2023-12-20T01:17:13;4.13;;;0.90;;
71125;SDS011;58785;55.566;38.058;2023-12-20T01:19:38;5.45;;;1.10;;
71125;SDS011;58785;55.566;38.058;2023-12-20T01:22:04;4.83;;;1.10;;
71125;SDS011;58785;55.566;38.058;2023-12-20T01:24:30;4.07;;;0.90;;
71125;SDS011;58785;55.566;38.058;2023-12-20T01:26:55;4.13;;;0.77;;
71125;SDS011;58785;55.566;38.058;2023-12-20T01:29:21;4.25;;;1.10;;
71125;SDS011;58785;55.566;38.058;2023-12-20T01:31:49;4.78;;;1.30;;
71125;SDS011;58785;55.566;38.058;2023-12-20T01:34:16;5.30;;;1.10;;
71125;SDS011;58785;55.566;38.058;2023-12-20T01:36:44;5.80;;;1.48;;
71125;SDS011;58785;55.566;38.058;2023-12-20T01:39:10;4.80;;;1.20;;
71125;SDS011;58785;55.566;38.058;2023-12-20T01:41:36;5.87;;;1.30;;
71125;SDS011;58785;55.566;38.058;2023-12-20T01:44:02;4.88;;;1.10;;
71125;SDS011;58785;55.566;38.058;2023-12-20T01:46:28;3.92;;;0.90;;
71125;SDS011;58785;55.566;38.058;2023-12-20T01:48:54;5.38;;;1.10;;
71125;SDS011;58785;55.566;38.058;2023-12-20T01:51:20;6.30;;;1.17;;
71125;SDS011;58785;55.566;38.058;2023-12-20T01:53:46;6.18;;;1.08;;
71125;SDS011;58785;55.566;38.058;2023-12-20T01:56:13;4.93;;;1.10;;
71125;SDS011;58785;55.566;38.058;2023-12-20T01:58:42;5.07;;;1.20;;
71125;SDS011;58785;55.566;38.058;2023-12-20T02:01:11;5.40;;;1.00;;
71125;SDS011;58785;55.566;38.058;2023-12-20T02:03:39;4.20;;;1.10;;
71125;SDS011;58785;55.566;38.058;2023-12-20T02:06:07;4.07;;;0.82;;
71125;SDS011;58785;55.566;38.058;2023-12-20T02:08:34;4.15;;;1.00;;
71125;SDS011;58785;55.566;38.058;2023-12-20T02:11:04;3.37;;;0.90;;
71125;SDS011;58785;55.566;38.058;2023-12-20T02:13:30;5.00;;;0.90;;
71125;SDS011;58785;55.566;38.058;2023-12-20T02:15:57;2.92;;;0.70;;
71125;SDS011;58785;55.566;38.058;2023-12-20T02:18:24;4.75;;;0.90;;
71125;SDS011;58785;55.566;38.058;2023-12-20T02:20:52;3.78;;;0.80;;
71125;SDS011;58785;55.566;38.058;2023-12-20T02:23:18;4.17;;;0.93;;
71125;SDS011;58785;55.566;38.058;2023-12-20T02:25:44;5.43;;;0.85;;
71125;SDS011;58785;55.566;38.058;2023-12-20T02:28:09;4.00;;;0.77;;
71125;SDS011;58785;55.566;38.058;2023-12-20T02:30:35;4.05;;;0.88;;
71125;SDS011;58785;55.566;38.058;2023-12-20T02:33:01;6.00;;;0.90;;
71125;SDS011;58785;55.566;38.058;2023-12-20T02:35:32;4.70;;;0.90;;
71125;SDS011;58785;55.566;38.058;2023-12-20T02:37:57;3.67;;;0.82;;
71125;SDS011;58785;55.566;38.058;2023-12-20T02:40:23;4.47;;;0.93;;
71125;SDS011;58785;55.566;38.058;2023-12-20T02:42:49;5.80;;;1.45;;
71125;SDS011;58785;55.566;38.058;2023-12-20T02:45:14;4.97;;;0.80;;
71125;SDS011;58785;55.566;38.058;2023-12-20T02:47:41;4.78;;;0.80;;
71125;SDS011;58785;55.566;38.058;2023-12-20T02:50:07;4.97;;;0.90;;
71125;SDS011;58785;55.566;38.058;2023-12-20T02:52:33;3.60;;;0.70;;
71125;SDS011;58785;55.566;38.058;2023-12-20T02:54:58;3.03;;;0.60;;
71125;SDS011;58785;55.566;38.058;2023-12-20T02:57:24;2.97;;;0.50;;
71125;SDS011;58785;55.566;38.058;2023-12-20T02:59:50;3.57;;;0.57;;
71125;SDS011;58785;55.566;38.058;2023-12-20T03:02:16;2.80;;;0.47;;
71125;SDS011;58785;55.566;38.058;2023-12-20T03:04:42;3.35;;;0.47;;
71125;SDS011;58785;55.566;38.058;2023-12-20T03:07:07;5.30;;;0.60;;
71125;SDS011;58785;55.566;38.058;2023-12-20T03:09:33;5.18;;;0.50;;
71125;SDS011;58785;55.566;38.058;2023-12-20T03:11:59;4.37;;;0.80;;
71125;SDS011;58785;55.566;38.058;2023-12-20T03:14:25;4.10;;;1.00;;
71125;SDS011;58785;55.566;38.058;2023-12-20T03:16:50;4.03;;;0.83;;
71125;SDS011;58785;55.566;38.058;2023-12-20T03:19:17;3.72;;;0.60;;
71125;SDS011;58785;55.566;38.058;2023-12-20T03:21:44;3.92;;;0.50;;
71125;SDS011;58785;55.566;38.058;2023-12-20T03:24:09;3.80;;;1.00;;
71125;SDS011;58785;55.566;38.058;2023-12-20T03:26:35;5.47;;;1.20;;
71125;SDS011;58785;55.566;38.058;2023-12-20T03:29:01;4.93;;;1.17;;
71125;SDS011;58785;55.566;38.058;2023-12-20T03:31:26;4.85;;;1.25;;
71125;SDS011;58785;55.566;38.058;2023-12-20T03:33:52;5.27;;;1.10;;
71125;SDS011;58785;55.566;38.058;2023-12-20T03:36:19;4.70;;;1.30;;
71125;SDS011;58785;55.566;38.058;2023-12-20T03:38:46;7.03;;;0.95;;
71125;SDS011;58785;55.566;38.058;2023-12-20T03:41:13;5.80;;;1.45;;
71125;SDS011;58785;55.566;38.058;2023-12-20T03:43:38;5.43;;;1.45;;
71125;SDS011;58785;55.566;38.058;2023-12-20T03:46:05;5.93;;;1.50;;
71125;SDS011;58785;55.566;38.058;2023-12-20T03:48:30;5.00;;;1.00;;
71125;SDS011;58785;55.566;38.058;2023-12-20T03:50:56;5.18;;;1.38;;
71125;SDS011;58785;55.566;38.058;2023-12-20T03:53:22;4.87;;;1.00;;
71125;SDS011;58785;55.566;38.058;2023-12-20T03:55:48;4.22;;;1.10;;
71125;SDS011;58785;55.566;38.058;2023-12-20T03:58:14;4.38;;;1.05;;
71125;SDS011;58785;55.566;38.058;2023-12-20T04:00:40;4.83;;;1.23;;
71125;SDS011;58785;55.566;38.058;2023-12-20T04:03:07;4.18;;;0.95;;
71125;SDS011;58785;55.566;38.058;2023-12-20T04:05:33;5.73;;;1.40;;
71125;SDS011;58785;55.566;38.058;2023-12-20T04:08:01;6.28;;;1.52;;
71125;SDS011;58785;55.566;38.058;2023-12-20T04:10:28;5.68;;;1.30;;
71125;SDS011;58785;55.566;38.058;2023-12-20T04:12:54;7.53;;;1.47;;
71125;SDS011;58785;55.566;38.058;2023-12-20T04:15:20;4.72;;;1.17;;
71125;SDS011;58785;55.566;38.058;2023-12-20T04:17:46;4.63;;;1.20;;
71125;SDS011;58785;55.566;38.058;2023-12-20T04:20:12;4.80;;;1.30;;
71125;SDS011;58785;55.566;38.058;2023-12-20T04:22:38;4.90;;;1.00;;
71125;SDS011;58785;55.566;38.058;2023-12-20T04:25:04;5.18;;;1.10;;
71125;SDS011;58785;55.566;38.058;2023-12-20T04:27:31;5.50;;;1.30;;
71125;SDS011;58785;55.566;38.058;2023-12-20T04:29:57;5.77;;;1.30;;
71125;SDS011;58785;55.566;38.058;2023-12-20T04:32:23;4.57;;;1.25;;
71125;SDS011;58785;55.566;38.058;2023-12-20T04:34:49;5.20;;;1.33;;
71125;SDS011;58785;55.566;38.058;2023-12-20T04:37:14;4.27;;;1.10;;
71125;SDS011;58785;55.566;38.058;2023-12-20T04:39:40;4.40;;;0.93;;
71125;SDS011;58785;55.566;38.058;2023-12-20T04:42:07;4.22;;;1.30;;
71125;SDS011;58785;55.566;38.058;2023-12-20T04:44:32;5.83;;;1.00;;
71125;SDS011;58785;55.566;38.058;2023-12-20T04:46:58;5.43;;;1.40;;
71125;SDS011;58785;55.566;38.058;2023-12-20T04:49:24;6.90;;;1.33;;
71125;SDS011;58785;55.566;38.058;2023-12-20T04:51:50;4.82;;;1.27;;
71125;SDS011;58785;55.566;38.058;2023-12-20T04:54:15;5.47;;;1.20;;
71125;SDS011;58785;55.566;38.058;2023-12-20T04:56:41;5.20;;;1.30;;
71125;SDS011;58785;55.566;38.058;2023-12-20T04:59:07;5.93;;;1.48;;
71125;SDS011;58785;55.566;38.058;2023-12-20T05:01:33;6.00;;;1.60;;
71125;SDS011;58785;55.566;38.058;2023-12-20T05:03:59;4.97;;;1.20;;
71125;SDS011;58785;55.566;38.058;2023-12-20T05:06:25;5.97;;;1.20;;
71125;SDS011;58785;55.566;38.058;2023-12-20T05:08:51;7.90;;;1.50;;
71125;SDS011;58785;55.566;38.058;2023-12-20T05:11:16;5.40;;;1.30;;
71125;SDS011;58785;55.566;38.058;2023-12-20T05:13:42;5.90;;;1.47;;
71125;SDS011;58785;55.566;38.058;2023-12-20T05:16:08;6.03;;;1.52;;
71125;SDS011;58785;55.566;38.058;2023-12-20T05:18:34;5.30;;;1.10;;
71125;SDS011;58785;55.566;38.058;2023-12-20T05:21:00;6.20;;;1.67;;
71125;SDS011;58785;55.566;38.058;2023-12-20T05:23:27;4.97;;;1.30;;
71125;SDS011;58785;55.566;38.058;2023-12-20T05:25:53;4.03;;;1.15;;
71125;SDS011;58785;55.566;38.058;2023-12-20T05:28:18;6.33;;;1.30;;
71125;SDS011;58785;55.566;38.058;2023-12-20T05:30:44;4.68;;;0.85;;
71125;SDS011;58785;55.566;38.058;2023-12-20T05:33:10;5.23;;;1.40;;
71125;SDS011;58785;55.566;38.058;2023-12-20T05:35:35;4.72;;;1.20;;
71125;SDS011;58785;55.566;38.058;2023-12-20T05:38:01;5.00;;;1.20;;
71125;SDS011;58785;55.566;38.058;2023-12-20T05:40:27;4.30;;;1.05;;
71125;SDS011;58785;55.566;38.058;2023-12-20T05:42:53;4.50;;;0.93;;
71125;SDS011;58785;55.566;38.058;2023-12-20T05:45:19;4.60;;;1.13;;
71125;SDS011;58785;55.566;38.058;2023-12-20T05:47:46;5.47;;;1.23;;
71125;SDS011;58785;55.566;38.058;2023-12-20T05:50:11;6.70;;;1.52;;
71125;SDS011;58785;55.566;38.058;2023-12-20T05:52:37;6.10;;;1.10;;
71125;SDS011;58785;55.566;38.058;2023-12-20T05:55:03;4.90;;;1.38;;
71125;SDS011;58785;55.566;38.058;2023-12-20T05:57:33;5.32;;;1.20;;
71125;SDS011;58785;55.566;38.058;2023-12-20T05:59:58;7.90;;;1.40;;
71125;SDS011;58785;55.566;38.058;2023-12-20T06:02:24;6.83;;;1.50;;
71125;SDS011;58785;55.566;38.058;2023-12-20T06:04:50;7.57;;;1.47;;
71125;SDS011;58785;55.566;38.058;2023-12-20T06:07:16;5.97;;;1.52;;
71125;SDS011;58785;55.566;38.058;2023-12-20T06:09:42;4.60;;;1.00;;
71125;SDS011;58785;55.566;38.058;2023-12-20T06:12:08;6.45;;;1.90;;
71125;SDS011;58785;55.566;38.058;2023-12-20T06:14:34;5.45;;;1.50;;
71125;SDS011;58785;55.566;38.058;2023-12-20T06:17:00;5.70;;;1.30;;
71125;SDS011;58785;55.566;38.058;2023-12-20T06:19:29;6.57;;;1.80;;
71125;SDS011;58785;55.566;38.058;2023-12-20T06:21:54;7.00;;;1.20;;
71125;SDS011;58785;55.566;38.058;2023-12-20T06:24:20;5.93;;;1.58;;
71125;SDS011;58785;55.566;38.058;2023-12-20T06:26:47;5.00;;;1.47;;
71125;SDS011;58785;55.566;38.058;2023-12-20T06:29:13;5.32;;;1.42;;
71125;SDS011;58785;55.566;38.058;2023-12-20T06:31:39;5.43;;;1.40;;
71125;SDS011;58785;55.566;38.058;2023-12-20T06:34:05;5.40;;;1.67;;
71125;SDS011;58785;55.566;38.058;2023-12-20T06:36:30;4.93;;;1.35;;
71125;SDS011;58785;55.566;38.058;2023-12-20T06:38:56;4.23;;;1.10;;
71125;SDS011;58785;55.566;38.058;2023-12-20T06:41:22;5.47;;;1.50;;
71125;SDS011;58785;55.566;38.058;2023-12-20T06:43:49;5.75;;;1.42;;
71125;SDS011;58785;55.566;38.058;2023-12-20T06:46:15;4.43;;;1.23;;
71125;SDS011;58785;55.566;38.058;2023-12-20T06:48:41;4.82;;;1.25;;
71125;SDS011;58785;55.566;38.058;2023-12-20T06:51:10;6.87;;;1.30;;
71125;SDS011;58785;55.566;38.058;2023-12-20T06:53:38;5.35;;;1.20;;
71125;SDS011;58785;55.566;38.058;2023-12-20T06:56:04;5.27;;;1.30;;
71125;SDS011;58785;55.566;38.058;2023-12-20T06:58:30;4.53;;;1.25;;
71125;SDS011;58785;55.566;38.058;2023-12-20T07:00:56;5.80;;;0.90;;
71125;SDS011;58785;55.566;38.058;2023-12-20T07:03:21;5.03;;;1.10;;
71125;SDS011;58785;55.566;38.058;2023-12-20T07:05:47;6.22;;;1.20;;
71125;SDS011;58785;55.566;38.058;2023-12-20T07:08:13;5.13;;;1.47;;
71125;SDS011;58785;55.566;38.058;2023-12-20T07:10:40;5.68;;;1.50;;
71125;SDS011;58785;55.566;38.058;2023-12-20T07:13:07;5.95;;;1.20;;
71125;SDS011;58785;55.566;38.058;2023-12-20T07:15:33;6.68;;;1.40;;
71125;SDS011;58785;55.566;38.058;2023-12-20T07:17:59;6.30;;;2.20;;
71125;SDS011;58785;55.566;38.058;2023-12-20T07:20:28;6.63;;;1.65;;
71125;SDS011;58785;55.566;38.058;2023-12-20T07:22:57;4.25;;;1.20;;
71125;SDS011;58785;55.566;38.058;2023-12-20T07:25:22;5.22;;;1.40;;
71125;SDS011;58785;55.566;38.058;2023-12-20T07:27:48;5.17;;;1.47;;
71125;SDS011;58785;55.566;38.058;2023-12-20T07:30:14;7.40;;;1.55;;
71125;SDS011;58785;55.566;38.058;2023-12-20T07:32:40;5.72;;;1.27;;
71125;SDS011;58785;55.566;38.058;2023-12-20T07:35:06;3.97;;;1.10;;
71125;SDS011;58785;55.566;38.058;2023-12-20T07:37:31;6.40;;;1.20;;
71125;SDS011;58785;55.566;38.058;2023-12-20T07:39:57;5.10;;;1.07;;
71125;SDS011;58785;55.566;38.058;2023-12-20T07:42:23;5.45;;;1.00;;
71125;SDS011;58785;55.566;38.058;2023-12-20T07:44:48;4.13;;;0.97;;
71125;SDS011;58785;55.566;38.058;2023-12-20T07:47:14;4.00;;;1.00;;
71125;SDS011;58785;55.566;38.058;2023-12-20T07:49:43;5.75;;;1.20;;
71125;SDS011;58785;55.566;38.058;2023-12-20T07:52:09;6.00;;;1.50;;
71125;SDS011;58785;55.566;38.058;2023-12-20T07:54:34;5.00;;;0.87;;
71125;SDS011;58785;55.566;38.058;2023-12-20T07:57:00;6.30;;;1.03;;
71125;SDS011;58785;55.566;38.058;2023-12-20T07:59:26;6.93;;;1.58;;
71125;SDS011;58785;55.566;38.058;2023-12-20T08:01:51;5.20;;;1.10;;
71125;SDS011;58785;55.566;38.058;2023-12-20T08:04:18;4.55;;;1.10;;
71125;SDS011;58785;55.566;38.058;2023-12-20T08:06:43;5.07;;;1.10;;
71125;SDS011;58785;55.566;38.058;2023-12-20T08:09:10;5.35;;;1.00;;
71125;SDS011;58785;55.566;38.058;2023-12-20T08:11:36;6.15;;;1.38;;
71125;SDS011;58785;55.566;38.058;2023-12-20T08:14:01;5.53;;;1.23;;
71125;SDS011;58785;55.566;38.058;2023-12-20T08:16:27;5.85;;;1.17;;
71125;SDS011;58785;55.566;38.058;2023-12-20T08:18:53;4.97;;;1.20;;
71125;SDS011;58785;55.566;38.058;2023-12-20T08:21:19;6.95;;;1.15;;
71125;SDS011;58785;55.566;38.058;2023-12-20T08:23:47;6.63;;;1.50;;
71125;SDS011;58785;55.566;38.058;2023-12-20T08:26:13;5.73;;;1.27;;
71125;SDS011;58785;55.566;38.058;2023-12-20T08:28:38;10.02;;;1.27;;
71125;SDS011;58785;55.566;38.058;2023-12-20T08:31:04;4.80;;;1.30;;
71125;SDS011;58785;55.566;38.058;2023-12-20T08:33:30;5.05;;;1.40;;
71125;SDS011;58785;55.566;38.058;2023-12-20T08:35:56;5.85;;;1.60;;
71125;SDS011;58785;55.566;38.058;2023-12-20T08:38:23;8.32;;;1.77;;
71125;SDS011;58785;55.566;38.058;2023-12-20T08:40:48;6.57;;;1.70;;
71125;SDS011;58785;55.566;38.058;2023-12-20T08:43:14;4.63;;;1.30;;
71125;SDS011;58785;55.566;38.058;2023-12-20T08:45:40;5.70;;;1.30;;
71125;SDS011;58785;55.566;38.058;2023-12-20T08:48:06;4.45;;;1.10;;
71125;SDS011;58785;55.566;38.058;2023-12-20T08:50:32;4.95;;;1.48;;
71125;SDS011;58785;55.566;38.058;2023-12-20T08:52:58;7.90;;;1.73;;
71125;SDS011;58785;55.566;38.058;2023-12-20T08:55:24;5.28;;;1.50;;
71125;SDS011;58785;55.566;38.058;2023-12-20T08:57:49;4.93;;;1.57;;
71125;SDS011;58785;55.566;38.058;2023-12-20T09:00:16;4.85;;;1.35;;
71125;SDS011;58785;55.566;38.058;2023-12-20T09:02:42;6.82;;;1.95;;
71125;SDS011;58785;55.566;38.058;2023-12-20T09:05:08;7.38;;;2.03;;
71125;SDS011;58785;55.566;38.058;2023-12-20T09:07:34;6.63;;;2.10;;
71125;SDS011;58785;55.566;38.058;2023-12-20T09:10:00;5.25;;;1.50;;
71125;SDS011;58785;55.566;38.058;2023-12-20T09:12:25;6.17;;;1.50;;
71125;SDS011;58785;55.566;38.058;2023-12-20T09:14:51;5.38;;;1.42;;
71125;SDS011;58785;55.566;38.058;2023-12-20T09:17:18;6.13;;;1.50;;
71125;SDS011;58785;55.566;38.058;2023-12-20T09:19:44;8.80;;;1.60;;
71125;SDS011;58785;55.566;38.058;2023-12-20T09:22:10;5.47;;;1.50;;
71125;SDS011;58785;55.566;38.058;2023-12-20T09:24:37;7.53;;;1.60;;
71125;SDS011;58785;55.566;38.058;2023-12-20T09:27:04;5.25;;;1.55;;
71125;SDS011;58785;55.566;38.058;2023-12-20T09:29:30;5.10;;;1.38;;
71125;SDS011;58785;55.566;38.058;2023-12-20T09:31:56;6.68;;;1.50;;
71125;SDS011;58785;55.566;38.058;2023-12-20T09:34:23;4.30;;;1.10;;
71125;SDS011;58785;55.566;38.058;2023-12-20T09:36:49;4.50;;;1.10;;
71125;SDS011;58785;55.566;38.058;2023-12-20T09:39:16;7.32;;;1.38;;
71125;SDS011;58785;55.566;38.058;2023-12-20T09:41:51;5.82;;;1.65;;
71125;SDS011;58785;55.566;38.058;2023-12-20T09:44:26;5.60;;;1.23;;
71125;SDS011;58785;55.566;38.058;2023-12-20T09:46:52;5.40;;;1.40;;
71125;SDS011;58785;55.566;38.058;2023-12-20T09:49:20;5.05;;;1.48;;
71125;SDS011;58785;55.566;38.058;2023-12-20T09:51:46;4.93;;;1.48;;
71125;SDS011;58785;55.566;38.058;2023-12-20T09:54:16;5.70;;;1.13;;
71125;SDS011;58785;55.566;38.058;2023-12-20T09:56:43;5.57;;;1.50;;
71125;SDS011;58785;55.566;38.058;2023-12-20T09:59:09;5.78;;;1.55;;
71125;SDS011;58785;55.566;38.058;2023-12-20T10:01:35;5.13;;;1.30;;
71125;SDS011;58785;55.566;38.058;2023-12-20T10:04:05;4.43;;;1.30;;
71125;SDS011;58785;55.566;38.058;2023-12-20T10:06:35;4.72;;;1.17;;
71125;SDS011;58785;55.566;38.058;2023-12-20T10:09:02;4.00;;;1.13;;
71125;SDS011;58785;55.566;38.058;2023-12-20T10:11:29;4.00;;;0.80;;
71125;SDS011;58785;55.566;38.058;2023-12-20T10:13:59;4.85;;;1.25;;
71125;SDS011;58785;55.566;38.058;2023-12-20T10:16:28;5.00;;;1.13;;
71125;SDS011;58785;55.566;38.058;2023-12-20T10:18:55;5.18;;;0.95;;
71125;SDS011;58785;55.566;38.058;2023-12-20T10:21:25;3.80;;;0.90;;
71125;SDS011;58785;55.566;38.058;2023-12-20T10:23:53;5.95;;;1.13;;
71125;SDS011;58785;55.566;38.058;2023-12-20T10:26:23;4.88;;;1.00;;
71125;SDS011;58785;55.566;38.058;2023-12-20T10:28:53;4.67;;;0.97;;
71125;SDS011;58785;55.566;38.058;2023-12-20T10:31:33;3.60;;;1.00;;
71125;SDS011;58785;55.566;38.058;2023-12-20T10:34:00;5.03;;;1.02;;
71125;SDS011;58785;55.566;38.058;2023-12-20T10:36:28;5.85;;;0.90;;
71125;SDS011;58785;55.566;38.058;2023-12-20T10:38:56;4.72;;;1.00;;
71125;SDS011;58785;55.566;38.058;2023-12-20T10:41:27;3.70;;;0.87;;
71125;SDS011;58785;55.566;38.058;2023-12-20T10:43:55;4.93;;;1.02;;
71125;SDS011;58785;55.566;38.058;2023-12-20T10:46:24;3.47;;;0.73;;
71125;SDS011;58785;55.566;38.058;2023-12-20T10:48:53;3.80;;;0.80;;
71125;SDS011;58785;55.566;38.058;2023-12-20T10:51:20;4.40;;;0.80;;
71125;SDS011;58785;55.566;38.058;2023-12-20T10:53:47;4.20;;;0.93;;
71125;SDS011;58785;55.566;38.058;2023-12-20T10:56:15;4.05;;;0.90;;
71125;SDS011;58785;55.566;38.058;2023-12-20T10:58:46;4.70;;;1.00;;
71125;SDS011;58785;55.566;38.058;2023-12-20T11:01:13;3.85;;;0.77;;
71125;SDS011;58785;55.566;38.058;2023-12-20T11:03:43;4.43;;;0.82;;
71125;SDS011;58785;55.566;38.058;2023-12-20T11:06:18;3.97;;;0.87;;
71125;SDS011;58785;55.566;38.058;2023-12-20T11:08:47;4.93;;;0.90;;
71125;SDS011;58785;55.566;38.058;2023-12-20T11:11:29;3.65;;;0.77;;
71125;SDS011;58785;55.566;38.058;2023-12-20T11:17:06;4.75;;;0.85;;
71125;SDS011;58785;55.566;38.058;2023-12-20T11:19:35;4.23;;;0.97;;
71125;SDS011;58785;55.566;38.058;2023-12-20T11:22:03;5.45;;;1.00;;
71125;SDS011;58785;55.566;38.058;2023-12-20T11:24:30;4.13;;;1.05;;
71125;SDS011;58785;55.566;38.058;2023-12-20T11:26:57;4.65;;;1.10;;
71125;SDS011;58785;55.566;38.058;2023-12-20T11:29:34;4.15;;;1.05;;
71125;SDS011;58785;55.566;38.058;2023-12-20T11:32:01;5.17;;;0.80;;
71125;SDS011;58785;55.566;38.058;2023-12-20T11:34:29;4.57;;;1.08;;
71125;SDS011;58785;55.566;38.058;2023-12-20T11:36:58;4.38;;;0.93;;
71125;SDS011;58785;55.566;38.058;2023-12-20T11:39:25;4.80;;;0.90;;
71125;SDS011;58785;55.566;38.058;2023-12-20T11:41:53;4.68;;;0.90;;
71125;SDS011;58785;55.566;38.058;2023-12-20T11:44:21;3.70;;;0.90;;
71125;SDS011;58785;55.566;38.058;2023-12-20T11:46:47;4.55;;;1.00;;
71125;SDS011;58785;55.566;38.058;2023-12-20T11:49:13;4.78;;;1.17;;
71125;SDS011;58785;55.566;38.058;2023-12-20T11:51:41;3.97;;;1.00;;
71125;SDS011;58785;55.566;38.058;2023-12-20T11:54:07;4.75;;;1.00;;
71125;SDS011;58785;55.566;38.058;2023-12-20T11:56:35;5.32;;;1.05;;
71125;SDS011;58785;55.566;38.058;2023-12-20T11:59:01;5.18;;;1.15;;
71125;SDS011;58785;55.566;38.058;2023-12-20T12:01:27;5.50;;;1.23;;
71125;SDS011;58785;55.566;38.058;2023-12-20T12:04:03;4.40;;;1.00;;
71125;SDS011;58785;55.566;38.058;2023-12-20T12:06:29;4.20;;;1.00;;
71125;SDS011;58785;55.566;38.058;2023-12-20T12:08:54;4.68;;;1.10;;
71125;SDS011;58785;55.566;38.058;2023-12-20T12:11:21;5.03;;;0.87;;
71125;SDS011;58785;55.566;38.058;2023-12-20T12:13:47;5.45;;;1.30;;
71125;SDS011;58785;55.566;38.058;2023-12-20T12:16:17;4.60;;;0.93;;
71125;SDS011;58785;55.566;38.058;2023-12-20T12:18:44;4.45;;;1.00;;
71125;SDS011;58785;55.566;38.058;2023-12-20T12:21:21;3.78;;;1.05;;
71125;SDS011;58785;55.566;38.058;2023-12-20T12:23:46;5.27;;;1.10;;
71125;SDS011;58785;55.566;38.058;2023-12-20T12:26:12;3.75;;;0.93;;
71125;SDS011;58785;55.566;38.058;2023-12-20T12:28:41;4.37;;;0.97;;
71125;SDS011;58785;55.566;38.058;2023-12-20T12:31:08;4.05;;;0.80;;
71125;SDS011;58785;55.566;38.058;2023-12-20T12:33:38;4.40;;;1.10;;
71125;SDS011;58785;55.566;38.058;2023-12-20T12:36:06;3.83;;;0.90;;
71125;SDS011;58785;55.566;38.058;2023-12-20T12:38:33;5.22;;;1.17;;
71125;SDS011;58785;55.566;38.058;2023-12-20T12:40:59;5.53;;;1.33;;
71125;SDS011;58785;55.566;38.058;2023-12-20T12:43:25;4.43;;;1.10;;
71125;SDS011;58785;55.566;38.058;2023-12-20T12:45:51;5.40;;;1.17;;
71125;SDS011;58785;55.566;38.058;2023-12-20T12:48:18;5.10;;;0.80;;
71125;SDS011;58785;55.566;38.058;2023-12-20T12:50:45;4.77;;;1.30;;
71125;SDS011;58785;55.566;38.058;2023-12-20T12:53:11;4.40;;;0.93;;
71125;SDS011;58785;55.566;38.058;2023-12-20T12:55:36;5.32;;;1.00;;
71125;SDS011;58785;55.566;38.058;2023-12-20T12:58:02;4.80;;;1.07;;
71125;SDS011;58785;55.566;38.058;2023-12-20T13:00:28;4.50;;;1.33;;
71125;SDS011;58785;55.566;38.058;2023-12-20T13:02:54;4.37;;;1.03;;
71125;SDS011;58785;55.566;38.058;2023-12-20T13:05:20;4.03;;;1.15;;
71125;SDS011;58785;55.566;38.058;2023-12-20T13:07:46;4.20;;;1.10;;
71125;SDS011;58785;55.566;38.058;2023-12-20T13:10:13;5.50;;;1.10;;
71125;SDS011;58785;55.566;38.058;2023-12-20T13:12:42;3.90;;;1.00;;
71125;SDS011;58785;55.566;38.058;2023-12-20T13:15:08;4.43;;;0.90;;
71125;SDS011;58785;55.566;38.058;2023-12-20T13:17:34;5.38;;;1.20;;
71125;SDS011;58785;55.566;38.058;2023-12-20T13:20:00;3.63;;;0.80;;
71125;SDS011;58785;55.566;38.058;2023-12-20T13:22:25;3.75;;;1.10;;
71125;SDS011;58785;55.566;38.058;2023-12-20T13:24:53;5.57;;;0.90;;
71125;SDS011;58785;55.566;38.058;2023-12-20T13:27:18;4.37;;;1.00;;
71125;SDS011;58785;55.566;38.058;2023-12-20T13:29:44;5.00;;;0.97;;
71125;SDS011;58785;55.566;38.058;2023-12-20T13:32:10;3.75;;;0.80;;
71125;SDS011;58785;55.566;38.058;2023-12-20T13:34:35;4.93;;;0.90;;
71125;SDS011;58785;55.566;38.058;2023-12-20T13:37:02;3.83;;;1.00;;
71125;SDS011;58785;55.566;38.058;2023-12-20T13:39:29;4.82;;;1.30;;
71125;SDS011;58785;55.566;38.058;2023-12-20T13:41:56;4.00;;;0.93;;
71125;SDS011;58785;55.566;38.058;2023-12-20T13:44:22;4.68;;;1.17;;
71125;SDS011;58785;55.566;38.058;2023-12-20T13:46:48;5.13;;;1.23;;
71125;SDS011;58785;55.566;38.058;2023-12-20T13:49:15;4.57;;;1.05;;
71125;SDS011;58785;55.566;38.058;2023-12-20T13:51:41;5.13;;;1.20;;
71125;SDS011;58785;55.566;38.058;2023-12-20T13:54:07;6.67;;;1.27;;
71125;SDS011;58785;55.566;38.058;2023-12-20T13:56:33;5.03;;;1.00;;
71125;SDS011;58785;55.566;38.058;2023-12-20T13:58:59;6.68;;;1.58;;
71125;SDS011;58785;55.566;38.058;2023-12-20T14:01:25;5.57;;;1.30;;
71125;SDS011;58785;55.566;38.058;2023-12-20T14:03:52;3.73;;;0.80;;
71125;SDS011;58785;55.566;38.058;2023-12-20T14:06:18;3.40;;;0.88;;
71125;SDS011;58785;55.566;38.058;2023-12-20T14:08:43;4.28;;;1.00;;
71125;SDS011;58785;55.566;38.058;2023-12-20T14:11:09;3.08;;;0.65;;
71125;SDS011;58785;55.566;38.058;2023-12-20T14:13:36;4.97;;;1.30;;
71125;SDS011;58785;55.566;38.058;2023-12-20T14:16:02;3.70;;;0.88;;
71125;SDS011;58785;55.566;38.058;2023-12-20T14:18:29;4.20;;;0.80;;
71125;SDS011;58785;55.566;38.058;2023-12-20T14:20:55;3.85;;;0.90;;
71125;SDS011;58785;55.566;38.058;2023-12-20T14:23:21;5.20;;;1.20;;
71125;SDS011;58785;55.566;38.058;2023-12-20T14:25:48;3.95;;;0.93;;
71125;SDS011;58785;55.566;38.058;2023-12-20T14:28:14;4.05;;;0.93;;
71125;SDS011;58785;55.566;38.058;2023-12-20T14:30:40;5.55;;;1.25;;
71125;SDS011;58785;55.566;38.058;2023-12-20T14:33:06;6.13;;;1.00;;